createdAt,value
2019-05-20T00:02:04.381Z,15.33
2019-05-20T00:04:33.260Z,15.87
2019-05-20T00:07:02.112Z,16.23
2019-05-20T00:09:30.988Z,16.53
2019-05-20T00:11:59.833Z,15.67
2019-05-20T00:14:28.720Z,17.17
2019-05-20T00:16:57.553Z,16.20
2019-05-20T00:19:26.454Z,14.93
2019-05-20T00:21:55.367Z,15.63
2019-05-20T00:24:24.265Z,16.40
2019-05-20T00:26:53.137Z,14.90
2019-05-20T00:29:22.019Z,15.20
2019-05-20T00:31:50.955Z,16.40
2019-05-20T00:34:34.215Z,16.17
2019-05-20T00:36:50.486Z,15.03
2019-05-20T00:39:20.250Z,13.40
2019-05-20T00:41:49.443Z,14.13
2019-05-20T00:44:18.668Z,15.00
2019-05-20T00:46:47.579Z,14.67
2019-05-20T00:49:16.428Z,15.10
2019-05-20T00:51:45.687Z,16.13
2019-05-20T00:54:14.595Z,14.80
2019-05-20T00:56:43.580Z,14.73
2019-05-20T00:59:12.442Z,15.67
2019-05-20T01:01:41.328Z,14.67
2019-05-20T01:04:10.204Z,13.57
2019-05-20T01:06:39.082Z,15.57
2019-05-20T01:09:08.237Z,14.60
2019-05-20T01:11:37.120Z,16.00
2019-05-20T01:14:06.404Z,14.53
2019-05-20T01:16:35.266Z,16.33
2019-05-20T01:19:04.122Z,14.70
2019-05-20T01:21:33.008Z,15.90
2019-05-20T01:24:01.869Z,14.93
2019-05-20T01:26:30.732Z,14.73
2019-05-20T01:28:59.588Z,14.27
2019-05-20T01:31:28.478Z,14.57
2019-05-20T01:33:57.453Z,15.60
2019-05-20T01:36:26.353Z,15.10
2019-05-20T01:38:55.205Z,15.57
2019-05-20T01:41:24.129Z,15.83
2019-05-20T01:43:53.009Z,14.63
2019-05-20T01:46:21.898Z,13.37
2019-05-20T01:48:50.787Z,14.50
2019-05-20T01:51:19.667Z,16.13
2019-05-20T01:53:48.603Z,13.93
2019-05-20T01:56:17.465Z,15.67
2019-05-20T01:58:46.311Z,15.67
2019-05-20T02:01:15.223Z,14.73
2019-05-20T02:03:44.075Z,15.23
2019-05-20T02:06:12.998Z,15.30
2019-05-20T02:08:41.846Z,16.83
2019-05-20T02:11:10.735Z,15.37
2019-05-20T02:13:58.353Z,14.23
2019-05-20T02:16:27.426Z,14.20
2019-05-20T02:18:56.251Z,15.10
2019-05-20T02:21:25.135Z,16.60
2019-05-20T02:23:54.019Z,15.73
2019-05-20T02:26:23.043Z,15.93
2019-05-20T02:28:51.940Z,15.90
2019-05-20T02:31:20.824Z,15.27
2019-05-20T02:33:52.477Z,16.07
2019-05-20T02:36:20.319Z,16.10
2019-05-20T02:38:49.192Z,16.80
2019-05-20T02:41:18.081Z,15.43
2019-05-20T02:43:47.019Z,14.40
2019-05-20T02:46:15.961Z,15.93
2019-05-20T02:48:44.896Z,16.73
2019-05-20T02:51:13.786Z,16.13
2019-05-20T02:53:42.697Z,15.23
2019-05-20T02:56:11.606Z,16.47
2019-05-20T02:58:40.457Z,16.13
2019-05-20T03:01:09.318Z,17.73
2019-05-20T03:03:38.204Z,16.37
2019-05-20T03:06:07.056Z,15.83
2019-05-20T03:08:35.996Z,16.37
2019-05-20T03:11:04.855Z,16.07
2019-05-20T03:13:33.727Z,17.37
2019-05-20T03:16:02.583Z,16.20
2019-05-20T03:18:31.475Z,16.60
2019-05-20T03:21:00.329Z,17.77
2019-05-20T03:23:29.304Z,15.37
2019-05-20T03:25:58.153Z,16.33
2019-05-20T03:28:27.043Z,15.90
2019-05-20T03:30:55.962Z,15.67
2019-05-20T03:33:24.858Z,17.33
2019-05-20T03:35:53.675Z,16.83
2019-05-20T03:38:22.540Z,16.43
2019-05-20T03:40:51.406Z,16.20
2019-05-20T03:43:20.292Z,17.07
2019-05-20T03:45:49.177Z,17.13
2019-05-20T03:48:18.076Z,16.10
2019-05-20T03:50:47.029Z,16.10
2019-05-20T03:53:15.912Z,17.37
2019-05-20T03:55:44.861Z,16.37
2019-05-20T03:58:14.140Z,16.07
2019-05-20T04:00:44.460Z,16.77
2019-05-20T04:03:13.890Z,18.30
2019-05-20T04:05:42.845Z,17.40
2019-05-20T04:08:11.851Z,18.50
2019-05-20T04:10:40.701Z,17.00
2019-05-20T04:13:09.631Z,16.47
2019-05-20T04:15:38.727Z,16.23
2019-05-20T04:18:07.584Z,18.03
2019-05-20T04:20:36.454Z,17.97
2019-05-20T04:23:05.408Z,19.43
2019-05-20T04:25:34.763Z,19.80
2019-05-20T04:28:03.659Z,18.27
2019-05-20T04:30:32.506Z,18.47
2019-05-20T04:33:01.425Z,19.03
2019-05-20T04:35:30.323Z,19.17
2019-05-20T04:37:59.261Z,19.33
2019-05-20T04:40:28.104Z,18.53
2019-05-20T04:42:57.011Z,18.40
2019-05-20T04:45:25.911Z,18.70
2019-05-20T04:47:54.827Z,18.37
2019-05-20T04:50:23.671Z,17.67
2019-05-20T04:52:52.599Z,17.10
2019-05-20T04:55:21.508Z,18.10
2019-05-20T04:57:50.383Z,16.70
2019-05-20T05:00:24.297Z,17.87
2019-05-20T05:02:53.175Z,142.70
2019-05-20T05:05:36.800Z,68.23
2019-05-20T05:07:52.555Z,42.53
2019-05-20T05:10:21.406Z,23.03
2019-05-20T05:12:50.357Z,15.67
2019-05-20T05:15:19.204Z,16.67
2019-05-20T05:17:48.137Z,16.73
2019-05-20T05:20:18.652Z,16.07
2019-05-20T05:22:47.675Z,16.73
2019-05-20T05:25:16.524Z,16.47
2019-05-20T05:27:45.400Z,17.67
2019-05-20T05:30:14.250Z,17.23
2019-05-20T05:32:43.800Z,18.57
2019-05-20T05:35:13.989Z,18.47
2019-05-20T05:37:43.048Z,17.77
2019-05-20T05:40:12.346Z,17.50
2019-05-20T05:42:41.199Z,17.43
2019-05-20T05:45:11.711Z,18.77
2019-05-20T05:47:40.870Z,19.30
2019-05-20T05:50:09.903Z,18.60
2019-05-20T05:52:38.779Z,19.60
2019-05-20T05:55:07.773Z,19.87
2019-05-20T05:57:36.615Z,20.30
2019-05-20T06:00:05.706Z,19.47
2019-05-20T06:02:34.549Z,20.07
2019-05-20T06:05:03.469Z,22.23
2019-05-20T06:07:32.314Z,23.70
2019-05-20T06:10:01.201Z,23.80
2019-05-20T06:12:30.060Z,23.90
2019-05-20T06:14:59.035Z,27.03
2019-05-20T06:17:27.875Z,28.93
2019-05-20T06:19:56.823Z,28.57
2019-05-20T06:22:25.672Z,28.90
2019-05-20T06:24:54.604Z,29.00
2019-05-20T06:27:23.453Z,30.47
2019-05-20T06:29:52.426Z,28.17
2019-05-20T06:32:21.328Z,29.30
2019-05-20T06:34:50.217Z,29.43
2019-05-20T06:37:20.928Z,29.27
2019-05-20T06:39:51.343Z,30.70
2019-05-20T06:42:20.342Z,28.97
2019-05-20T06:44:52.981Z,29.00
2019-05-20T06:47:19.763Z,29.10
2019-05-20T06:49:48.637Z,29.87
2019-05-20T06:52:34.398Z,28.03
2019-05-20T06:54:48.149Z,26.77
2019-05-20T06:57:17.013Z,30.00
2019-05-20T06:59:45.895Z,29.03
2019-05-20T07:02:14.733Z,28.87
2019-05-20T07:04:43.609Z,27.47
2019-05-20T07:07:20.786Z,29.67
2019-05-20T07:09:43.065Z,29.00
2019-05-20T07:12:12.125Z,28.73
2019-05-20T07:14:41.013Z,31.67
2019-05-20T07:17:09.896Z,30.33
2019-05-20T07:19:38.777Z,33.23
2019-05-20T07:22:07.625Z,35.00
2019-05-20T07:24:36.552Z,34.50
2019-05-20T07:27:05.407Z,31.60
2019-05-20T07:29:34.294Z,32.10
2019-05-20T07:32:03.159Z,31.70
2019-05-20T07:34:32.037Z,32.33
2019-05-20T07:37:03.789Z,29.77
2019-05-20T07:39:31.423Z,29.50
2019-05-20T07:42:00.267Z,30.43
2019-05-20T07:44:29.306Z,30.83
2019-05-20T07:46:58.245Z,31.67
2019-05-20T07:49:27.107Z,29.07
2019-05-20T07:51:56.160Z,30.07
2019-05-20T07:54:25.116Z,31.53
2019-05-20T07:56:55.233Z,30.93
2019-05-20T07:59:24.583Z,31.60
2019-05-20T08:01:53.493Z,33.03
2019-05-20T08:04:22.366Z,29.43
2019-05-20T08:06:51.235Z,30.53
2019-05-20T08:09:20.108Z,30.63
2019-05-20T08:11:48.980Z,30.00
2019-05-20T08:14:17.866Z,29.67
2019-05-20T08:16:46.726Z,30.03
2019-05-20T08:19:15.614Z,29.60
2019-05-20T08:21:44.502Z,30.83
2019-05-20T08:24:13.353Z,30.73
2019-05-20T08:26:42.259Z,29.33
2019-05-20T08:29:11.102Z,30.70
2019-05-20T08:31:39.983Z,28.83
2019-05-20T08:34:08.866Z,29.83
2019-05-20T08:36:37.739Z,30.33
2019-05-20T08:39:07.277Z,30.37
2019-05-20T08:41:36.366Z,29.63
2019-05-20T08:44:05.387Z,29.60
2019-05-20T08:46:34.247Z,31.97
2019-05-20T08:49:03.134Z,29.00
2019-05-20T08:51:32.184Z,29.23
2019-05-20T08:54:01.097Z,31.50
2019-05-20T08:56:29.964Z,30.33
2019-05-20T08:58:58.821Z,29.77
2019-05-20T09:01:27.750Z,30.30
2019-05-20T09:03:56.589Z,31.13
2019-05-20T09:06:25.481Z,30.57
2019-05-20T09:08:54.378Z,31.47
2019-05-20T09:11:23.294Z,29.73
2019-05-20T09:13:52.267Z,30.40
2019-05-20T09:16:21.277Z,29.43
2019-05-20T09:18:50.130Z,29.97
2019-05-20T09:21:19.065Z,28.57
2019-05-20T09:23:47.911Z,29.00
2019-05-20T09:26:16.849Z,31.23
2019-05-20T09:28:45.701Z,31.17
2019-05-20T09:31:14.735Z,33.03
2019-05-20T09:33:44.016Z,32.57
2019-05-20T09:36:12.986Z,33.53
2019-05-20T09:38:41.892Z,33.97
2019-05-20T09:41:10.871Z,35.73
2019-05-20T09:43:39.731Z,36.67
2019-05-20T09:46:08.702Z,36.53
2019-05-20T09:48:37.587Z,38.30
2019-05-20T09:51:06.525Z,37.63
2019-05-20T09:53:36.185Z,37.30
2019-05-20T09:56:05.068Z,38.83
2019-05-20T09:58:33.939Z,39.90
2019-05-20T10:01:02.819Z,37.37
2019-05-20T10:03:31.674Z,36.43
2019-05-20T10:06:00.561Z,36.53
2019-05-20T10:08:38.820Z,36.73
2019-05-20T10:11:00.579Z,40.00
2019-05-20T10:13:30.040Z,38.07
2019-05-20T10:15:58.936Z,37.70
2019-05-20T10:18:37.552Z,39.10
2019-05-20T10:20:58.402Z,38.67
2019-05-20T10:23:27.326Z,34.97
2019-05-20T10:25:56.171Z,37.40
2019-05-20T10:28:25.078Z,38.97
2019-05-20T10:30:53.925Z,37.40
2019-05-20T10:33:22.801Z,40.40
2019-05-20T10:35:51.705Z,40.30
2019-05-20T10:38:20.607Z,39.50
2019-05-20T10:40:49.467Z,42.93
2019-05-20T10:43:18.342Z,42.30
2019-05-20T10:45:47.235Z,40.33
2019-05-20T10:48:16.184Z,40.60
2019-05-20T10:50:45.114Z,40.00
2019-05-20T10:53:14.017Z,40.43
2019-05-20T10:55:42.865Z,39.73
2019-05-20T10:58:11.742Z,40.87
2019-05-20T11:00:40.617Z,41.47
2019-05-20T11:03:09.522Z,41.50
2019-05-20T11:05:38.433Z,42.97
2019-05-20T11:08:07.351Z,43.53
2019-05-20T11:10:36.260Z,43.20
2019-05-20T11:13:05.143Z,44.57
2019-05-20T11:15:33.996Z,42.33
2019-05-20T11:18:02.876Z,43.27
2019-05-20T11:20:31.738Z,42.80
2019-05-20T11:23:01.334Z,42.23
2019-05-20T11:25:30.373Z,41.63
2019-05-20T11:27:59.276Z,43.53
2019-05-20T11:30:28.308Z,40.93
2019-05-20T11:32:57.252Z,40.77
2019-05-20T11:35:26.091Z,40.00
2019-05-20T11:37:54.998Z,41.50
2019-05-20T11:40:23.930Z,42.07
2019-05-20T11:42:52.845Z,41.30
2019-05-20T11:45:21.718Z,40.23
2019-05-20T11:47:50.613Z,39.23
2019-05-20T11:50:19.684Z,39.80
2019-05-20T11:52:48.588Z,42.27
2019-05-20T11:55:17.481Z,38.87
2019-05-20T11:57:46.358Z,38.93
2019-05-20T12:00:15.439Z,36.20
2019-05-20T12:02:44.357Z,37.67
2019-05-20T12:05:13.327Z,39.50
2019-05-20T12:07:42.231Z,37.70
2019-05-20T12:10:11.187Z,39.43
2019-05-20T12:12:40.088Z,38.50
2019-05-20T12:15:09.457Z,37.43
2019-05-20T12:17:38.357Z,37.07
2019-05-20T12:20:08.248Z,35.53
2019-05-20T12:22:38.308Z,33.47
2019-05-20T12:25:07.232Z,33.20
2019-05-20T12:27:36.176Z,35.30
2019-05-20T12:30:05.631Z,35.07
2019-05-20T12:32:34.505Z,35.03
2019-05-20T12:35:03.418Z,34.57
2019-05-20T12:37:32.282Z,34.23
2019-05-20T12:40:07.288Z,33.87
2019-05-20T12:42:31.676Z,33.47
2019-05-20T12:45:00.580Z,35.33
2019-05-20T12:47:29.434Z,33.60
2019-05-20T12:49:58.310Z,35.93
2019-05-20T12:52:27.161Z,37.63
2019-05-20T12:55:07.274Z,36.20
2019-05-20T12:57:26.558Z,37.20
2019-05-20T12:59:55.443Z,34.47
2019-05-20T13:02:24.313Z,35.60
2019-05-20T13:04:53.272Z,36.20
2019-05-20T13:07:22.248Z,38.33
2019-05-20T13:09:51.129Z,36.17
2019-05-20T13:12:20.037Z,39.57
2019-05-20T13:14:49.096Z,39.37
2019-05-20T13:17:17.939Z,37.90
2019-05-20T13:19:46.834Z,38.73
2019-05-20T13:22:15.685Z,38.70
2019-05-20T13:24:44.563Z,39.40
2019-05-20T13:27:13.441Z,38.77
2019-05-20T13:29:42.364Z,37.70
2019-05-20T13:32:11.203Z,37.57
2019-05-20T13:34:40.084Z,40.07
2019-05-20T13:37:08.943Z,40.03
2019-05-20T13:39:39.394Z,40.20
2019-05-20T13:42:08.243Z,39.60
2019-05-20T13:44:37.240Z,41.53
2019-05-20T13:47:06.064Z,42.57
2019-05-20T13:49:34.959Z,40.50
2019-05-20T13:52:03.832Z,40.50
2019-05-20T13:54:32.716Z,40.23
2019-05-20T13:57:01.567Z,38.67
2019-05-20T13:59:30.451Z,39.27
2019-05-20T14:01:59.422Z,40.23
2019-05-20T14:04:28.332Z,39.57
2019-05-20T14:06:57.175Z,40.17
2019-05-20T14:09:26.113Z,38.70
2019-05-20T14:11:54.964Z,41.40
2019-05-20T14:14:23.888Z,38.77
2019-05-20T14:16:52.743Z,40.60
2019-05-20T14:19:22.798Z,39.37
2019-05-20T14:21:51.771Z,38.30
2019-05-20T14:24:20.670Z,38.87
2019-05-20T14:26:49.508Z,37.67
2019-05-20T14:29:18.396Z,38.70
2019-05-20T14:31:47.241Z,37.77
2019-05-20T14:34:16.145Z,36.37
2019-05-20T14:36:45.019Z,37.50
2019-05-20T14:39:13.889Z,37.43
2019-05-20T14:41:45.984Z,36.83
2019-05-20T14:44:14.613Z,38.07
2019-05-20T14:46:43.562Z,36.13
2019-05-20T14:49:14.521Z,38.07
2019-05-20T14:51:43.388Z,39.40
2019-05-20T14:54:12.266Z,39.73
2019-05-20T14:56:41.135Z,39.97
2019-05-20T14:59:10.203Z,39.07
2019-05-20T15:01:39.065Z,41.00
2019-05-20T15:04:07.959Z,42.67
2019-05-20T15:06:36.818Z,45.60
2019-05-20T15:09:06.413Z,42.13
2019-05-20T15:11:38.572Z,42.40
2019-05-20T15:14:06.072Z,44.60
2019-05-20T15:16:34.958Z,44.80
2019-05-20T15:19:03.799Z,46.63
2019-05-20T15:21:33.099Z,47.27
2019-05-20T15:24:02.115Z,49.67
2019-05-20T15:26:31.070Z,48.70
2019-05-20T15:28:59.930Z,48.60
2019-05-20T15:31:28.793Z,51.03
2019-05-20T15:33:57.632Z,50.20
2019-05-20T15:36:26.516Z,50.33
2019-05-20T15:38:55.399Z,50.40
2019-05-20T15:41:24.264Z,57.37
2019-05-20T15:43:53.176Z,56.73
2019-05-20T15:46:22.127Z,60.10
2019-05-20T15:48:51.024Z,62.53
2019-05-20T15:51:19.948Z,62.33
2019-05-20T15:53:48.795Z,42.30
2019-05-20T15:56:17.663Z,34.53
2019-05-20T15:58:46.539Z,20.73
2019-05-20T16:01:15.457Z,13.00
2019-05-20T16:03:44.300Z,9.67
2019-05-20T16:06:13.328Z,8.70
2019-05-20T16:08:42.191Z,8.57
2019-05-20T16:11:11.094Z,8.87
2019-05-20T16:13:39.943Z,9.93
2019-05-20T16:16:12.244Z,11.20
2019-05-20T16:18:39.428Z,11.77
2019-05-20T16:21:08.418Z,14.03
2019-05-20T16:23:37.292Z,12.67
2019-05-20T16:26:06.165Z,11.30
2019-05-20T16:28:35.008Z,9.70
2019-05-20T16:31:03.879Z,8.17
2019-05-20T16:33:32.797Z,8.73
2019-05-20T16:36:01.684Z,8.33
2019-05-20T16:38:30.539Z,9.40
2019-05-20T16:40:59.410Z,8.93
2019-05-20T16:43:28.287Z,8.47
2019-05-20T16:45:57.162Z,8.77
2019-05-20T16:48:26.017Z,8.97
2019-05-20T16:50:55.132Z,8.53
2019-05-20T16:53:24.100Z,10.20
2019-05-20T16:55:52.974Z,10.60
2019-05-20T16:58:21.824Z,10.33
2019-05-20T17:00:50.718Z,10.10
2019-05-20T17:03:19.555Z,9.07
2019-05-20T17:05:48.434Z,10.43
2019-05-20T17:08:17.363Z,9.87
2019-05-20T17:10:46.260Z,8.63
2019-05-20T17:13:15.126Z,7.87
2019-05-20T17:15:43.996Z,9.30
2019-05-20T17:18:12.843Z,8.13
2019-05-20T17:20:45.786Z,8.10
2019-05-20T17:23:12.516Z,8.50
2019-05-20T17:25:41.433Z,8.40
2019-05-20T17:28:10.270Z,9.43
2019-05-20T17:30:45.616Z,8.83
2019-05-20T17:33:09.748Z,10.00
2019-05-20T17:35:38.658Z,8.83
2019-05-20T17:38:07.548Z,9.60
2019-05-20T17:40:36.447Z,8.90
2019-05-20T17:43:05.358Z,8.47
2019-05-20T17:45:34.292Z,7.00
2019-05-20T17:48:03.273Z,8.80
2019-05-20T17:50:32.308Z,8.43
2019-05-20T17:53:01.174Z,9.60
2019-05-20T17:55:30.150Z,7.60
2019-05-20T17:57:59.092Z,7.37
2019-05-20T18:00:27.961Z,6.30
2019-05-20T18:02:56.828Z,6.80
2019-05-20T18:05:25.665Z,6.57
2019-05-20T18:07:54.543Z,7.80
2019-05-20T18:10:25.379Z,8.20
2019-05-20T18:12:54.262Z,7.30
2019-05-20T18:15:23.110Z,7.20
2019-05-20T18:17:52.002Z,8.43
2019-05-20T18:20:21.048Z,8.00
2019-05-20T18:22:50.097Z,9.10
2019-05-20T18:25:18.953Z,8.90
2019-05-20T18:27:47.987Z,9.07
2019-05-20T18:30:16.848Z,12.47
2019-05-20T18:32:45.729Z,9.67
2019-05-20T18:35:14.582Z,9.83
2019-05-20T18:37:43.442Z,9.70
2019-05-20T18:40:14.376Z,9.10
2019-05-20T18:42:42.944Z,8.70
2019-05-20T18:45:12.117Z,8.97
2019-05-20T18:47:41.004Z,9.27
2019-05-20T18:50:10.056Z,9.57
2019-05-20T18:52:38.931Z,10.37
2019-05-20T18:55:07.890Z,10.27
2019-05-20T18:57:36.783Z,9.90
2019-05-20T19:00:06.263Z,10.47
2019-05-20T19:02:35.149Z,12.77
2019-05-20T19:05:04.201Z,12.80
2019-05-20T19:07:33.141Z,14.70
2019-05-20T19:10:01.971Z,14.47
2019-05-20T19:12:30.893Z,14.53
2019-05-20T19:14:59.766Z,10.17
2019-05-20T19:17:28.703Z,12.43
2019-05-20T19:19:57.591Z,16.47
2019-05-20T19:22:26.493Z,11.03
2019-05-20T19:24:55.359Z,12.27
2019-05-20T19:27:24.263Z,12.27
2019-05-20T19:29:53.108Z,13.17
2019-05-20T19:32:22.515Z,14.80
2019-05-20T19:34:52.289Z,14.67
2019-05-20T19:37:21.166Z,15.80
2019-05-20T19:39:50.015Z,15.07
2019-05-20T19:42:19.019Z,15.87
2019-05-20T19:44:47.942Z,15.93
2019-05-20T19:47:16.848Z,17.87
2019-05-20T19:49:45.720Z,16.77
2019-05-20T19:52:14.625Z,16.67
2019-05-20T19:54:43.479Z,15.77
2019-05-20T19:57:12.336Z,15.93
2019-05-20T19:59:41.211Z,17.87
2019-05-20T20:02:17.591Z,16.53
2019-05-20T20:04:40.700Z,16.73
2019-05-20T20:07:09.578Z,16.30
2019-05-20T20:09:38.441Z,18.53
2019-05-20T20:12:07.386Z,17.83
2019-05-20T20:14:36.264Z,17.80
2019-05-20T20:17:05.118Z,16.67
2019-05-20T20:19:34.016Z,20.90
2019-05-20T20:22:02.871Z,16.57
2019-05-20T20:24:31.749Z,16.50
2019-05-20T20:27:00.607Z,15.43
2019-05-20T20:29:29.567Z,15.97
2019-05-20T20:31:58.457Z,15.17
2019-05-20T20:34:30.467Z,15.73
2019-05-20T20:36:57.922Z,15.17
2019-05-20T20:39:26.790Z,17.90
2019-05-20T20:41:55.682Z,18.03
2019-05-20T20:44:24.680Z,17.93
2019-05-20T20:46:53.526Z,16.60
2019-05-20T20:49:22.401Z,18.10
2019-05-20T20:51:51.257Z,17.07
2019-05-20T20:54:20.188Z,17.77
2019-05-20T20:56:49.104Z,17.50
2019-05-20T20:59:17.987Z,17.90
2019-05-20T21:01:46.843Z,17.57
2019-05-20T21:04:15.728Z,15.97
2019-05-20T21:06:44.623Z,15.23
2019-05-20T21:09:13.559Z,15.67
2019-05-20T21:11:42.474Z,13.40
2019-05-20T21:14:11.398Z,13.73
2019-05-20T21:16:40.302Z,12.47
2019-05-20T21:19:09.187Z,12.70
2019-05-20T21:21:38.078Z,11.50
2019-05-20T21:24:07.070Z,11.83
2019-05-20T21:26:35.911Z,12.67
2019-05-20T21:29:04.881Z,12.70
2019-05-20T21:31:33.792Z,14.10
2019-05-20T21:34:02.674Z,13.47
2019-05-20T21:36:46.169Z,16.90
2019-05-20T21:39:02.160Z,17.13
2019-05-20T21:41:30.993Z,19.73
2019-05-20T21:43:59.939Z,19.23
2019-05-20T21:46:28.851Z,18.47
2019-05-20T21:48:57.737Z,18.40
2019-05-20T21:51:26.606Z,17.40
2019-05-20T21:53:55.516Z,17.70
2019-05-20T21:56:24.404Z,18.20
2019-05-20T21:58:53.278Z,18.03
2019-05-20T22:01:22.171Z,16.43
2019-05-20T22:03:51.069Z,18.50
2019-05-20T22:06:19.940Z,18.23
2019-05-20T22:08:48.879Z,19.60
2019-05-20T22:11:17.736Z,20.47
2019-05-20T22:13:46.629Z,18.53
2019-05-20T22:16:15.496Z,20.77
2019-05-20T22:18:44.403Z,21.07
2019-05-20T22:21:14.820Z,23.03
2019-05-20T22:23:54.492Z,22.50
2019-05-20T22:26:23.341Z,21.87
2019-05-20T22:28:52.223Z,21.93
2019-05-20T22:31:21.141Z,21.03
2019-05-20T22:33:50.024Z,23.50
2019-05-20T22:36:18.893Z,22.60
2019-05-20T22:38:47.807Z,22.43
2019-05-20T22:41:16.650Z,22.90
2019-05-20T22:43:45.537Z,21.57
2019-05-20T22:46:14.454Z,21.40
2019-05-20T22:48:43.340Z,23.73
2019-05-20T22:51:12.180Z,24.97
2019-05-20T22:53:41.033Z,28.53
2019-05-20T22:56:09.920Z,29.77
2019-05-20T22:58:38.816Z,30.70
2019-05-20T23:01:07.704Z,33.60
2019-05-20T23:03:36.573Z,32.87
2019-05-20T23:06:05.449Z,36.70
2019-05-20T23:08:34.298Z,34.03
2019-05-20T23:11:03.186Z,32.03
2019-05-20T23:13:32.082Z,33.40
2019-05-20T23:16:00.985Z,32.40
2019-05-20T23:18:29.834Z,29.87
2019-05-20T23:20:58.738Z,29.07
2019-05-20T23:23:27.678Z,27.83
2019-05-20T23:25:56.567Z,23.53
2019-05-20T23:28:25.502Z,21.00
2019-05-20T23:30:54.471Z,16.77
2019-05-20T23:33:23.333Z,17.87
2019-05-20T23:35:52.214Z,15.10
2019-05-20T23:38:21.062Z,13.57
2019-05-20T23:40:50.001Z,12.27
2019-05-20T23:43:18.871Z,13.37
2019-05-20T23:45:47.787Z,13.37
2019-05-20T23:48:16.664Z,9.67
2019-05-20T23:50:45.534Z,7.33
2019-05-20T23:53:14.390Z,7.90
2019-05-20T23:55:43.393Z,11.50
2019-05-20T23:58:12.239Z,11.30
